This is the latest recevied weather packets stored in our database for station/object KE6RLG. If no packets are shown the sender has not sent any weather packets the latest 10 day(s).
| Time | Temp. | Humidity | Pressure | Rain* | Wind** | Luminosity | Snow |
|---|---|---|---|---|---|---|---|
| 1778087718 | 18.33° C | 61% | 1018.2 hPa | 0 mm | - | 714 W/m² | - |
| 1778084719 | 18.89° C | 62% | 1018.1 hPa | 0 mm | - | 559 W/m² | - |
| 1778084419 | 18.89° C | 61% | 1018.1 hPa | 0 mm | - | 543 W/m² | - |
| 1778083839 | 18.89° C | 61% | 1018 hPa | 0 mm | - | 508 W/m² | - |
| 1778080819 | 16.67° C | 66% | 1018 hPa | 0 mm | - | 318 W/m² | - |
| 1778079616 | 16.67° C | 66% | 1017.9 hPa | 0 mm | - | 246 W/m² | - |
| 1778079017 | 16.67° C | 66% | 1017.9 hPa | 0 mm | - | 213 W/m² | - |
| 1778078417 | 17.22° C | 66% | 1017.8 hPa | 0 mm | - | 187 W/m² | - |
| 1778078117 | 17.22° C | 64% | 1017.7 hPa | 0 mm | - | 174 W/m² | - |
| 1778076023 | 12.78° C | 89% | 1017.7 hPa | 0 mm | - | 79 W/m² | - |
| 1778072444 | 11.11° C | 88% | 1017.2 hPa | 0 mm | - | 2 W/m² | - |
| 1778071524 | 10.56° C | 87% | 1017 hPa | 0 mm | - | 0 W/m² | - |
| 1778068525 | 11.11° C | 85% | 1016.7 hPa | 0 mm | - | 0 W/m² | - |
| 1778065826 | 11.11° C | 85% | 1016.6 hPa | 0 mm | - | 0 W/m² | - |
| 1778062547 | 11.67° C | 84% | 1016.7 hPa | 0 mm | - | 0 W/m² | - |
| 1778060427 | 11.67° C | 83% | 1016.6 hPa | 0 mm | - | 0 W/m² | - |
| 1778059827 | 11.67° C | 82% | 1016.6 hPa | 0 mm | - | 0 W/m² | - |
| 1778058047 | 11.67° C | 82% | 1016.8 hPa | 0 mm | - | 0 W/m² | - |
| 1778057728 | 11.67° C | 82% | 1016.8 hPa | 0 mm | - | 0 W/m² | - |
| 1778055028 | 11.67° C | 81% | 1017 hPa | 0 mm | - | 0 W/m² | - |
| 1778053828 | 11.67° C | 81% | 1017 hPa | 0 mm | - | 0 W/m² | - |
| 1778053228 | 12.22° C | 80% | 1017.1 hPa | 0 mm | - | 0 W/m² | - |
| 1778052029 | 12.22° C | 80% | 1017 hPa | 0 mm | - | 0 W/m² | - |
| 1778051749 | 12.22° C | 79% | 1016.9 hPa | 0 mm | - | 0 W/m² | - |
| 1778050829 | 12.22° C | 79% | 1016.7 hPa | 0 mm | - | 0 W/m² | - |
* Rain latest hour (hover to see other rain measurements)
** Current wind speed in m/s (hover to see current wind gust speed)